Terminal Aerodrome Forecast
Issued by NWS

Home | Current Version | Previous Version | Text Only | Print | Product List | Glossary Off
Versions: 1 2 3 4 5 6 7 8 9 10 11 12 13 14 15 16 17

000
FTUS43 KMPX 250900 AAC
TAFRWF
TAF AMD
KRWF 250910Z 2509/2606 15009KT 6SM TSRA SCT020 BKN035CB
     FM251000 16009KT P6SM SCT020 BKN035
     FM251800 27005KT P6SM BKN040
     FM260100 30005KT P6SM SKC=

USA.gov is the U.S. government's official web portal to all federal, state and local government web resources and services.